Terminal Aerodrome Forecast
Issued by NWS

Home | Current Version | Previous Version | Text Only | Print | Product List | Glossary On
Versions: 1 2 3 4 5 6 7 8 9 10 11 12 13 14 15 16 17 18 19 20 21 22 23 24
938
FTUS45 KPSR 060539
TAFPHX
TAF
KPHX 060539Z 0606/0706 12004KT P6SM SCT150 BKN200
     FM061600 15004KT P6SM FEW060 SCT150 BKN200
     FM062100 26005KT P6SM FEW060 SCT150 BKN200=

USA.gov is the U.S. government's official web portal to all federal, state and local government web resources and services.